createdAt,value
2022-10-23T00:00:42.656Z,97.68
2022-10-23T00:03:10.749Z,97.82
2022-10-23T00:05:41.023Z,98.00
2022-10-23T00:08:09.187Z,97.88
2022-10-23T00:10:37.127Z,97.64
2022-10-23T00:13:05.270Z,97.57
2022-10-23T00:15:35.394Z,97.69
2022-10-23T00:18:04.980Z,97.76
2022-10-23T00:20:32.828Z,97.47
2022-10-23T00:23:00.786Z,97.76
2022-10-23T00:25:29.029Z,97.64
2022-10-23T00:27:56.932Z,97.63
2022-10-23T00:30:24.795Z,97.78
2022-10-23T00:32:52.795Z,98.01
2022-10-23T00:35:22.038Z,97.86
2022-10-23T00:37:50.083Z,97.96
2022-10-23T00:40:18.030Z,98.37
2022-10-23T00:42:45.944Z,98.26
2022-10-23T00:45:22.191Z,98.27
2022-10-23T00:47:50.520Z,98.12
2022-10-23T00:50:18.655Z,98.34
2022-10-23T00:52:49.521Z,98.20
2022-10-23T00:55:18.373Z,98.51
2022-10-23T00:57:47.899Z,98.46
2022-10-23T01:00:17.911Z,98.56
2022-10-23T01:02:46.337Z,98.44
2022-10-23T01:05:14.530Z,98.29
2022-10-23T01:07:50.859Z,98.50
2022-10-23T01:10:24.522Z,98.62
2022-10-23T01:12:55.692Z,98.76
2022-10-23T01:15:26.199Z,98.66
2022-10-23T01:17:57.668Z,98.69
2022-10-23T01:20:32.681Z,98.81
2022-10-23T01:23:11.978Z,98.94
2022-10-23T01:26:00.836Z,99.12
2022-10-23T01:28:33.836Z,99.14
2022-10-23T01:31:03.478Z,99.40
2022-10-23T01:33:34.846Z,99.36
2022-10-23T01:36:04.778Z,99.71
2022-10-23T01:38:36.736Z,99.51
2022-10-23T01:41:08.322Z,99.66
2022-10-23T01:43:39.975Z,99.80
2022-10-23T01:46:10.043Z,99.79
2022-10-23T01:48:38.635Z,99.94
2022-10-23T01:51:09.030Z,99.93
2022-10-23T01:53:41.339Z,99.98
2022-10-23T01:56:12.945Z,100.00
2022-10-23T01:58:44.146Z,100.00
2022-10-23T02:01:12.710Z,100.00
2022-10-23T02:03:43.085Z,100.00
2022-10-23T02:06:11.092Z,100.00
2022-10-23T02:08:38.974Z,100.00
2022-10-23T02:11:09.165Z,100.00
2022-10-23T02:13:41.004Z,100.00
2022-10-23T02:16:16.584Z,100.00
2022-10-23T02:18:49.781Z,100.00
2022-10-23T02:21:19.267Z,100.00
2022-10-23T02:23:53.801Z,100.00
2022-10-23T02:26:26.183Z,100.00
2022-10-23T02:28:57.170Z,100.00
2022-10-23T02:31:26.594Z,100.00
2022-10-23T02:33:54.531Z,100.00
2022-10-23T02:36:22.541Z,100.00
2022-10-23T02:38:50.460Z,100.00
2022-10-23T02:41:25.973Z,100.00
2022-10-23T02:44:01.334Z,100.00
2022-10-23T02:46:33.193Z,100.00
2022-10-23T02:49:09.584Z,100.00
2022-10-23T02:51:43.872Z,100.00
2022-10-23T02:54:17.608Z,100.00
2022-10-23T02:56:49.439Z,100.00
2022-10-23T02:59:21.662Z,100.00
2022-10-23T03:01:53.175Z,100.00
2022-10-23T03:04:24.760Z,100.00
2022-10-23T03:06:53.021Z,100.00
2022-10-23T03:09:21.053Z,100.00
2022-10-23T03:11:48.941Z,100.00
2022-10-23T03:14:16.807Z,100.00
2022-10-23T03:16:44.700Z,100.00
2022-10-23T03:19:14.129Z,100.00
2022-10-23T03:21:42.110Z,100.00
2022-10-23T03:24:09.994Z,100.00
2022-10-23T03:26:38.141Z,100.00
2022-10-23T03:29:05.952Z,100.00
2022-10-23T03:31:33.961Z,100.00
2022-10-23T03:34:04.074Z,100.00
2022-10-23T03:36:35.777Z,100.00
2022-10-23T03:39:04.258Z,100.00
2022-10-23T03:41:32.464Z,100.00
2022-10-23T03:44:00.452Z,100.00
2022-10-23T03:46:28.391Z,100.00
2022-10-23T03:48:58.115Z,100.00
2022-10-23T03:51:26.296Z,100.00
2022-10-23T03:53:55.514Z,100.00
2022-10-23T03:56:23.348Z,100.00
2022-10-23T03:58:51.213Z,100.00
2022-10-23T04:01:19.329Z,100.00
2022-10-23T04:03:47.200Z,100.00
2022-10-23T04:06:15.436Z,100.00
2022-10-23T04:08:43.725Z,100.00
2022-10-23T04:11:13.047Z,100.00
2022-10-23T04:13:41.106Z,100.00
2022-10-23T04:16:08.992Z,100.00
2022-10-23T04:18:36.809Z,100.00
2022-10-23T04:21:04.738Z,100.00
2022-10-23T04:23:32.739Z,100.00
2022-10-23T04:26:00.682Z,100.00
2022-10-23T04:28:36.823Z,100.00
2022-10-23T04:31:04.757Z,100.00
2022-10-23T04:33:32.604Z,100.00
2022-10-23T04:36:00.549Z,100.00
2022-10-23T04:38:28.444Z,100.00
2022-10-23T04:40:56.447Z,100.00
2022-10-23T04:43:24.319Z,100.00
2022-10-23T04:45:53.554Z,100.00
2022-10-23T04:48:25.488Z,100.00
2022-10-23T04:50:57.586Z,100.00
2022-10-23T04:53:25.777Z,100.00
2022-10-23T04:55:54.253Z,100.00
2022-10-23T04:58:22.301Z,100.00
2022-10-23T05:00:50.502Z,100.00
2022-10-23T05:03:20.098Z,100.00
2022-10-23T05:05:47.963Z,100.00
2022-10-23T05:08:18.081Z,100.00
2022-10-23T05:10:46.277Z,100.00
2022-10-23T05:13:14.261Z,100.00
2022-10-23T05:18:13.001Z,100.00
2022-10-23T05:20:43.656Z,100.00
2022-10-23T05:23:12.457Z,100.00
2022-10-23T05:25:42.866Z,100.00
2022-10-23T05:28:10.764Z,100.00
2022-10-23T05:30:39.339Z,100.00
2022-10-23T05:33:07.487Z,100.00
2022-10-23T05:35:35.350Z,100.00
2022-10-23T05:38:04.971Z,100.00
2022-10-23T05:40:32.913Z,100.00
2022-10-23T05:43:00.996Z,100.00
2022-10-23T05:45:29.034Z,100.00
2022-10-23T05:48:05.768Z,100.00
2022-10-23T05:50:44.976Z,100.00
2022-10-23T05:53:14.244Z,100.00
2022-10-23T05:55:42.206Z,100.00
2022-10-23T05:58:10.246Z,100.00
2022-10-23T06:00:38.079Z,100.00
2022-10-23T06:03:06.105Z,100.00
2022-10-23T06:05:34.033Z,100.00
2022-10-23T06:08:01.903Z,100.00
2022-10-23T06:10:32.208Z,100.00
2022-10-23T06:13:00.093Z,100.00
2022-10-23T06:15:28.113Z,100.00
2022-10-23T06:17:55.951Z,100.00
2022-10-23T06:20:26.646Z,100.00
2022-10-23T06:22:56.799Z,100.00
2022-10-23T06:25:24.782Z,100.00
2022-10-23T06:27:53.939Z,100.00
2022-10-23T06:30:22.155Z,100.00
2022-10-23T06:32:50.043Z,100.00
2022-10-23T06:35:17.879Z,100.00
2022-10-23T06:37:45.870Z,99.75
2022-10-23T06:40:13.792Z,99.60
2022-10-23T06:42:42.152Z,99.27
2022-10-23T06:45:11.628Z,99.50
2022-10-23T06:47:39.699Z,99.62
2022-10-23T06:50:11.697Z,99.49
2022-10-23T06:52:47.085Z,99.89
2022-10-23T06:55:16.000Z,99.65
2022-10-23T06:57:44.424Z,99.67
2022-10-23T07:00:14.588Z,99.33
2022-10-23T07:02:42.723Z,99.06
2022-10-23T07:05:13.543Z,98.75
2022-10-23T07:07:41.990Z,97.60
2022-10-23T07:10:10.249Z,96.06
2022-10-23T07:12:38.096Z,93.79
2022-10-23T07:15:06.514Z,93.22
2022-10-23T07:17:35.729Z,93.71
2022-10-23T07:20:03.859Z,93.03
2022-10-23T07:22:31.912Z,92.50
2022-10-23T07:24:59.855Z,91.88
2022-10-23T07:27:28.147Z,91.89
2022-10-23T07:29:56.188Z,91.48
2022-10-23T07:32:24.670Z,91.19
2022-10-23T07:34:54.041Z,91.23
2022-10-23T07:37:21.997Z,91.13
2022-10-23T07:39:50.051Z,90.90
2022-10-23T07:42:17.948Z,90.58
2022-10-23T07:44:45.987Z,90.03
2022-10-23T07:47:13.906Z,89.77
2022-10-23T07:49:41.791Z,89.46
2022-10-23T07:52:11.105Z,88.92
2022-10-23T07:54:39.295Z,88.30
2022-10-23T07:57:08.029Z,87.93
2022-10-23T07:59:38.032Z,86.97
2022-10-23T08:02:06.180Z,86.60
2022-10-23T08:04:34.032Z,85.89
2022-10-23T08:07:02.050Z,85.14
2022-10-23T08:09:31.401Z,84.49
2022-10-23T08:11:59.369Z,84.04
2022-10-23T08:14:27.484Z,83.82
2022-10-23T08:16:55.674Z,83.33
2022-10-23T08:19:23.695Z,83.17
2022-10-23T08:21:54.674Z,83.04
2022-10-23T08:24:22.543Z,82.49
2022-10-23T08:26:51.820Z,81.28
2022-10-23T08:29:20.428Z,80.69
2022-10-23T08:31:48.573Z,79.86
2022-10-23T08:34:19.034Z,78.97
2022-10-23T08:36:47.026Z,77.77
2022-10-23T08:39:14.986Z,77.17
2022-10-23T08:41:43.743Z,74.75
2022-10-23T08:44:17.310Z,72.98
2022-10-23T08:46:50.258Z,70.97
2022-10-23T08:49:22.385Z,69.31
2022-10-23T08:51:51.879Z,68.32
2022-10-23T08:54:22.652Z,67.85
2022-10-23T08:56:52.783Z,67.58
2022-10-23T08:59:30.847Z,66.94
2022-10-23T09:02:02.301Z,64.71
2022-10-23T09:04:30.329Z,62.54
2022-10-23T09:07:01.034Z,60.94
2022-10-23T09:09:38.309Z,61.05
2022-10-23T09:12:08.682Z,62.17
2022-10-23T09:14:57.033Z,62.47
2022-10-23T09:17:26.162Z,63.09
2022-10-23T09:19:57.014Z,64.25
2022-10-23T09:22:25.185Z,66.15
2022-10-23T09:24:53.952Z,68.39
2022-10-23T09:27:22.169Z,69.02
2022-10-23T09:29:52.160Z,69.89
2022-10-23T09:32:20.752Z,70.75
2022-10-23T09:34:52.642Z,71.54
2022-10-23T09:37:24.696Z,72.50
2022-10-23T09:40:02.579Z,72.95
2022-10-23T09:42:31.206Z,73.10
2022-10-23T09:45:00.509Z,72.74
2022-10-23T09:47:33.599Z,72.83
2022-10-23T09:50:03.527Z,72.08
2022-10-23T09:52:38.396Z,71.90
2022-10-23T09:55:22.514Z,72.24
2022-10-23T09:57:53.263Z,72.23
2022-10-23T10:00:28.021Z,72.49
2022-10-23T10:03:03.015Z,71.85
2022-10-23T10:05:34.583Z,71.54
2022-10-23T10:08:11.374Z,71.52
2022-10-23T10:10:49.201Z,70.55
2022-10-23T10:13:37.652Z,70.16
2022-10-23T10:16:13.705Z,69.12
2022-10-23T10:18:46.804Z,68.84
2022-10-23T10:21:19.677Z,68.76
2022-10-23T10:23:51.110Z,68.74
2022-10-23T10:26:27.341Z,69.32
2022-10-23T10:29:15.270Z,69.63
2022-10-23T10:31:50.837Z,70.99
2022-10-23T10:34:29.673Z,71.23
2022-10-23T10:36:58.604Z,71.07
2022-10-23T10:39:33.601Z,71.46
2022-10-23T10:42:34.902Z,72.02
2022-10-23T10:45:17.936Z,72.12
2022-10-23T10:47:55.320Z,72.22
2022-10-23T10:50:25.966Z,72.06
2022-10-23T10:53:00.911Z,71.68
2022-10-23T10:55:32.787Z,71.96
2022-10-23T10:58:04.214Z,71.57
2022-10-23T11:00:34.281Z,71.32
2022-10-23T11:03:10.809Z,71.15
2022-10-23T11:05:42.036Z,70.82
2022-10-23T11:08:15.195Z,70.57
2022-10-23T11:10:45.373Z,70.56
2022-10-23T11:13:19.848Z,70.42
2022-10-23T11:15:48.257Z,70.97
2022-10-23T11:18:21.623Z,71.75
2022-10-23T11:20:58.903Z,71.84
2022-10-23T11:23:46.738Z,72.19
2022-10-23T11:26:21.130Z,71.79
2022-10-23T11:28:59.658Z,71.52
2022-10-23T11:31:34.128Z,70.99
2022-10-23T11:34:26.224Z,69.92
2022-10-23T11:37:01.290Z,67.14
2022-10-23T11:39:30.554Z,65.15
2022-10-23T11:41:59.765Z,62.79
2022-10-23T11:44:42.007Z,62.70
2022-10-23T11:47:35.001Z,62.29
2022-10-23T11:50:14.249Z,63.01
2022-10-23T11:53:09.291Z,62.92
2022-10-23T11:55:42.096Z,62.77
2022-10-23T11:58:14.980Z,62.30
2022-10-23T12:00:52.418Z,60.56
2022-10-23T12:03:22.641Z,59.62
2022-10-23T12:05:57.575Z,59.85
2022-10-23T12:08:29.222Z,60.11
2022-10-23T12:10:57.089Z,60.19
2022-10-23T12:13:29.962Z,60.18
2022-10-23T12:16:00.752Z,61.53
2022-10-23T12:18:31.936Z,62.05
2022-10-23T12:21:01.469Z,62.14
2022-10-23T12:23:47.375Z,61.67
2022-10-23T12:26:43.391Z,63.88
2022-10-23T12:29:19.568Z,63.99
2022-10-23T12:31:52.653Z,63.48
2022-10-23T12:34:27.779Z,62.34
2022-10-23T12:37:09.912Z,61.16
2022-10-23T12:39:40.665Z,58.86
2022-10-23T12:42:16.196Z,57.71
2022-10-23T12:44:44.554Z,56.17
2022-10-23T12:47:15.946Z,55.30
2022-10-23T12:49:49.069Z,55.38
2022-10-23T12:52:18.318Z,55.36
2022-10-23T12:54:53.532Z,54.88
2022-10-23T12:57:25.956Z,53.78
2022-10-23T12:59:56.764Z,53.56
2022-10-23T13:02:25.862Z,53.27
2022-10-23T13:04:55.105Z,52.81
2022-10-23T13:07:26.388Z,51.24
2022-10-23T13:09:56.172Z,50.95
2022-10-23T13:12:25.631Z,50.71
2022-10-23T13:14:58.310Z,50.80
2022-10-23T13:17:35.236Z,52.21
2022-10-23T13:20:10.322Z,52.94
2022-10-23T13:22:41.453Z,54.18
2022-10-23T13:25:24.853Z,54.68
2022-10-23T13:28:03.201Z,54.47
2022-10-23T13:30:32.562Z,54.79
2022-10-23T13:33:02.006Z,55.05
2022-10-23T13:35:29.982Z,56.20
2022-10-23T13:38:08.004Z,56.81
2022-10-23T13:40:37.497Z,57.23
2022-10-23T13:43:14.288Z,57.54
2022-10-23T13:45:42.463Z,57.88
2022-10-23T13:48:12.898Z,58.04
2022-10-23T13:50:41.156Z,57.50
2022-10-23T13:53:11.775Z,56.99
2022-10-23T13:55:41.525Z,57.13
2022-10-23T13:58:09.585Z,57.15
2022-10-23T14:00:38.024Z,57.07
2022-10-23T14:03:06.257Z,57.50
2022-10-23T14:05:34.152Z,57.90
2022-10-23T14:08:02.026Z,58.28
2022-10-23T14:10:30.096Z,58.06
2022-10-23T14:12:59.388Z,57.79
2022-10-23T14:15:27.386Z,57.20
2022-10-23T14:17:59.021Z,57.59
2022-10-23T14:20:28.355Z,57.75
2022-10-23T14:22:56.613Z,58.24
2022-10-23T14:25:24.971Z,57.81
2022-10-23T14:27:52.989Z,58.06
2022-10-23T14:30:22.297Z,58.27
2022-10-23T14:32:50.760Z,58.53
2022-10-23T14:35:18.643Z,58.28
2022-10-23T14:37:46.903Z,58.26
2022-10-23T14:40:15.242Z,58.96
2022-10-23T14:42:43.304Z,58.99
2022-10-23T14:45:11.621Z,58.77
2022-10-23T14:47:41.290Z,58.60
2022-10-23T14:50:11.838Z,58.40
2022-10-23T14:52:39.804Z,58.87
2022-10-23T14:55:07.998Z,58.61
2022-10-23T14:57:35.865Z,58.97
2022-10-23T15:00:03.956Z,59.19
2022-10-23T15:02:32.217Z,59.43
2022-10-23T15:05:01.498Z,59.93
2022-10-23T15:07:29.634Z,60.13
2022-10-23T15:09:57.685Z,60.49
2022-10-23T15:12:25.738Z,60.92
2022-10-23T15:14:53.560Z,60.95
2022-10-23T15:17:21.573Z,61.68
2022-10-23T15:19:49.564Z,62.14
2022-10-23T15:22:19.516Z,62.61
2022-10-23T15:24:47.873Z,62.90
2022-10-23T15:27:15.781Z,62.39
2022-10-23T15:29:43.849Z,62.42
2022-10-23T15:32:12.499Z,62.65
2022-10-23T15:34:42.689Z,62.85
2022-10-23T15:37:11.315Z,63.50
2022-10-23T15:39:40.634Z,63.96
2022-10-23T15:42:08.528Z,65.83
2022-10-23T15:44:36.479Z,68.94
2022-10-23T15:47:04.541Z,72.24
2022-10-23T15:49:33.301Z,74.24
2022-10-23T15:52:02.375Z,75.97
2022-10-23T15:54:32.839Z,77.82
2022-10-23T15:57:02.985Z,78.73
2022-10-23T15:59:31.896Z,79.90
2022-10-23T16:02:00.090Z,79.56
2022-10-23T16:04:28.557Z,80.40
2022-10-23T16:06:56.490Z,80.91
2022-10-23T16:09:24.443Z,81.24
2022-10-23T16:11:52.407Z,79.93
2022-10-23T16:14:22.204Z,80.76
2022-10-23T16:16:50.305Z,80.16
2022-10-23T16:19:18.914Z,80.87
2022-10-23T16:21:50.223Z,81.45
2022-10-23T16:24:18.654Z,82.85
2022-10-23T16:26:50.329Z,81.03
2022-10-23T16:29:18.494Z,82.61
2022-10-23T16:31:50.914Z,81.74
2022-10-23T16:34:19.853Z,82.41
2022-10-23T16:36:48.376Z,82.99
2022-10-23T16:39:26.379Z,83.13
2022-10-23T16:41:59.925Z,83.67
2022-10-23T16:44:35.670Z,83.04
2022-10-23T16:47:07.546Z,84.51
2022-10-23T16:49:36.566Z,84.92
2022-10-23T16:52:05.477Z,85.76
2022-10-23T16:54:34.929Z,86.00
2022-10-23T16:57:03.367Z,86.62
2022-10-23T16:59:31.813Z,86.81
2022-10-23T17:02:00.640Z,87.69
2022-10-23T17:04:30.380Z,88.48
2022-10-23T17:06:59.368Z,89.06
2022-10-23T17:09:31.114Z,90.15
2022-10-23T17:11:59.917Z,90.19
2022-10-23T17:14:30.625Z,90.76
2022-10-23T17:17:06.737Z,90.90
2022-10-23T17:19:44.996Z,91.09
2022-10-23T17:22:19.417Z,91.55
2022-10-23T17:24:50.234Z,92.03
2022-10-23T17:27:25.785Z,91.93
2022-10-23T17:29:53.825Z,92.27
2022-10-23T17:34:56.063Z,93.28
2022-10-23T17:37:24.130Z,93.33
2022-10-23T17:39:52.057Z,93.76
2022-10-23T17:42:21.871Z,93.72
2022-10-23T17:44:49.913Z,94.12
2022-10-23T17:47:18.228Z,94.63
2022-10-23T17:49:46.292Z,94.24
2022-10-23T17:52:17.615Z,94.35
2022-10-23T17:54:51.848Z,94.48
2022-10-23T17:57:20.251Z,94.83
2022-10-23T17:59:49.845Z,94.85
2022-10-23T18:02:18.439Z,95.32
2022-10-23T18:04:47.330Z,95.98
2022-10-23T18:07:17.122Z,96.08
2022-10-23T18:09:49.708Z,96.53
2022-10-23T18:12:18.816Z,96.61
2022-10-23T18:14:48.501Z,96.51
2022-10-23T18:17:17.609Z,96.67
2022-10-23T18:19:50.721Z,96.62
2022-10-23T18:22:19.983Z,96.56
2022-10-23T18:24:47.862Z,96.60
2022-10-23T18:27:15.791Z,96.31
2022-10-23T18:29:43.697Z,96.04
2022-10-23T18:32:11.896Z,96.11
2022-10-23T18:34:39.841Z,96.09
2022-10-23T18:37:07.796Z,95.82
2022-10-23T18:39:37.134Z,95.85
2022-10-23T18:42:05.219Z,96.00
2022-10-23T18:44:33.520Z,95.92
2022-10-23T18:47:04.025Z,96.00
2022-10-23T18:49:32.063Z,96.18
2022-10-23T18:52:00.037Z,96.11
2022-10-23T18:54:28.128Z,96.14
2022-10-23T18:56:57.504Z,96.02
2022-10-23T18:59:25.472Z,96.15
2022-10-23T19:02:09.213Z,96.38
2022-10-23T19:04:48.571Z,96.83
2022-10-23T19:07:17.133Z,96.46
2022-10-23T19:09:45.027Z,96.32
2022-10-23T19:14:47.692Z,96.43
2022-10-23T19:17:18.206Z,96.14
2022-10-23T19:19:47.779Z,96.12
2022-10-23T19:22:17.486Z,96.45
2022-10-23T19:24:52.077Z,96.74
2022-10-23T19:27:21.570Z,96.75
2022-10-23T19:29:52.100Z,96.27
2022-10-23T19:32:20.166Z,95.90
2022-10-23T19:34:48.130Z,95.90
2022-10-23T19:37:16.603Z,95.87
2022-10-23T19:39:44.714Z,96.16
2022-10-23T19:42:12.903Z,95.62
2022-10-23T19:44:42.248Z,95.35
2022-10-23T19:47:12.361Z,95.03
2022-10-23T19:49:50.682Z,94.62
2022-10-23T19:52:19.160Z,94.18
2022-10-23T19:54:47.074Z,93.34
2022-10-23T19:57:17.035Z,91.41
2022-10-23T19:59:50.972Z,90.85
2022-10-23T20:02:19.591Z,90.13
2022-10-23T20:04:47.734Z,90.45
2022-10-23T20:07:15.590Z,90.25
2022-10-23T20:09:43.555Z,90.30
2022-10-23T20:12:11.467Z,89.97
2022-10-23T20:14:39.690Z,89.50
2022-10-23T20:17:08.946Z,87.47
2022-10-23T20:19:37.422Z,86.42
2022-10-23T20:22:05.437Z,86.84
2022-10-23T20:24:33.581Z,86.06
2022-10-23T20:27:01.556Z,85.15
2022-10-23T20:29:29.794Z,84.53
2022-10-23T20:31:57.668Z,84.19
2022-10-23T20:34:26.898Z,84.46
2022-10-23T20:36:54.847Z,84.05
2022-10-23T20:39:25.385Z,82.88
2022-10-23T20:41:55.110Z,82.33
2022-10-23T20:44:23.633Z,83.16
2022-10-23T20:46:52.238Z,82.75
2022-10-23T20:49:20.461Z,83.21
2022-10-23T20:51:54.988Z,82.94
2022-10-23T20:54:34.721Z,83.56
2022-10-23T20:57:05.309Z,85.02
2022-10-23T20:59:35.371Z,86.11
2022-10-23T21:02:09.233Z,85.76
2022-10-23T21:04:37.633Z,85.12
2022-10-23T21:07:11.306Z,83.64
2022-10-23T21:09:40.015Z,84.78
2022-10-23T21:12:08.212Z,84.58
2022-10-23T21:14:36.325Z,86.19
2022-10-23T21:17:04.955Z,87.13
2022-10-23T21:19:32.967Z,88.36
2022-10-23T21:22:03.274Z,88.50
2022-10-23T21:24:35.369Z,89.28
2022-10-23T21:27:08.927Z,89.88
2022-10-23T21:29:38.023Z,90.18
2022-10-23T21:32:06.163Z,89.97
2022-10-23T21:34:34.900Z,89.20
2022-10-23T21:37:13.583Z,89.46
2022-10-23T21:39:45.300Z,89.90
2022-10-23T21:42:14.093Z,90.91
2022-10-23T21:44:42.688Z,90.73
2022-10-23T21:47:10.976Z,91.45
2022-10-23T21:49:39.262Z,91.34
2022-10-23T21:52:08.264Z,91.56
2022-10-23T21:54:45.159Z,91.71
2022-10-23T21:57:15.838Z,91.83
2022-10-23T21:59:44.507Z,91.54
2022-10-23T22:02:12.712Z,91.72
2022-10-23T22:04:48.555Z,91.91
2022-10-23T22:07:18.208Z,92.21
2022-10-23T22:09:46.592Z,92.79
2022-10-23T22:12:16.017Z,92.85
2022-10-23T22:14:44.265Z,92.65
2022-10-23T22:17:12.376Z,92.71
2022-10-23T22:19:40.917Z,92.13
2022-10-23T22:22:08.882Z,91.95
2022-10-23T22:24:37.211Z,92.35
2022-10-23T22:27:05.911Z,92.41
2022-10-23T22:29:35.876Z,91.79
2022-10-23T22:32:04.143Z,91.10
2022-10-23T22:34:51.830Z,91.37
2022-10-23T22:37:21.243Z,91.05
2022-10-23T22:39:51.192Z,90.45
2022-10-23T22:42:23.043Z,90.27
2022-10-23T22:44:53.474Z,90.68
2022-10-23T22:47:30.351Z,90.96
2022-10-23T22:49:58.647Z,90.86
2022-10-23T22:52:30.203Z,90.64
2022-10-23T22:54:58.411Z,90.17
2022-10-23T22:57:29.285Z,89.68
2022-10-23T22:59:58.991Z,88.72
2022-10-23T23:02:26.969Z,88.70
2022-10-23T23:04:55.037Z,88.33
2022-10-23T23:07:23.018Z,88.75
2022-10-23T23:09:51.094Z,88.49
2022-10-23T23:12:19.186Z,87.80
2022-10-23T23:14:47.113Z,88.41
2022-10-23T23:17:16.457Z,88.28
2022-10-23T23:19:44.544Z,88.40
2022-10-23T23:22:12.627Z,87.32
2022-10-23T23:24:40.813Z,87.53
2022-10-23T23:27:09.053Z,87.11
2022-10-23T23:29:37.015Z,86.45
2022-10-23T23:32:06.259Z,85.44
2022-10-23T23:34:35.553Z,85.16
2022-10-23T23:37:03.608Z,84.88
2022-10-23T23:39:31.620Z,85.09
2022-10-23T23:41:59.576Z,85.20
2022-10-23T23:44:27.599Z,84.76
2022-10-23T23:46:55.820Z,83.74
2022-10-23T23:49:24.258Z,83.83
2022-10-23T23:51:53.748Z,83.46
2022-10-23T23:54:21.731Z,83.33
2022-10-23T23:56:49.703Z,83.76
2022-10-23T23:59:17.614Z,82.27
